createdAt,value
2022-10-31T00:00:31.647Z,5.80
2022-10-31T00:02:58.668Z,6.82
2022-10-31T00:05:25.541Z,6.85
2022-10-31T00:07:54.920Z,6.35
2022-10-31T00:10:21.520Z,6.40
2022-10-31T00:12:49.182Z,6.03
2022-10-31T00:15:15.821Z,6.03
2022-10-31T00:17:42.428Z,6.38
2022-10-31T00:20:10.549Z,7.05
2022-10-31T00:22:37.217Z,7.05
2022-10-31T00:25:04.077Z,5.47
2022-10-31T00:27:30.688Z,6.80
2022-10-31T00:29:57.312Z,6.07
2022-10-31T00:32:23.902Z,5.95
2022-10-31T00:34:50.486Z,5.65
2022-10-31T00:37:17.036Z,5.93
2022-10-31T00:39:46.024Z,5.53
2022-10-31T00:42:12.602Z,5.70
2022-10-31T00:44:39.177Z,5.97
2022-10-31T00:47:05.734Z,6.50
2022-10-31T00:49:32.309Z,4.78
2022-10-31T00:51:58.916Z,5.18
2022-10-31T00:54:25.508Z,5.93
2022-10-31T00:56:52.051Z,5.60
2022-10-31T00:59:18.727Z,5.60
2022-10-31T01:01:45.496Z,5.53
2022-10-31T01:04:12.123Z,5.22
2022-10-31T01:06:38.726Z,5.03
2022-10-31T01:09:05.372Z,5.28
2022-10-31T01:11:32.334Z,4.53
2022-10-31T01:13:59.022Z,5.30
2022-10-31T01:16:27.746Z,5.10
2022-10-31T01:18:54.358Z,5.55
2022-10-31T01:21:26.659Z,5.18
2022-10-31T01:23:57.065Z,5.40
2022-10-31T01:26:30.776Z,4.65
2022-10-31T01:29:00.112Z,5.38
2022-10-31T01:31:32.712Z,5.55
2022-10-31T01:33:59.662Z,5.32
2022-10-31T01:36:27.722Z,5.55
2022-10-31T01:38:58.314Z,5.65
2022-10-31T01:41:27.732Z,5.80
2022-10-31T01:43:55.665Z,5.10
2022-10-31T01:46:35.402Z,4.93
2022-10-31T01:49:06.364Z,5.07
2022-10-31T01:51:39.593Z,5.45
2022-10-31T01:54:11.552Z,4.72
2022-10-31T01:56:42.274Z,5.35
2022-10-31T01:59:11.803Z,5.30
2022-10-31T02:01:39.187Z,4.70
2022-10-31T02:04:07.658Z,5.45
2022-10-31T02:06:44.074Z,5.10
2022-10-31T02:09:13.151Z,5.20
2022-10-31T02:11:41.085Z,4.45
2022-10-31T02:14:07.720Z,4.55
2022-10-31T02:16:34.372Z,5.10
2022-10-31T02:19:01.095Z,4.70
2022-10-31T02:22:06.612Z,5.95
2022-10-31T02:24:44.077Z,4.97
2022-10-31T02:27:43.679Z,4.90
2022-10-31T02:30:36.865Z,4.55
2022-10-31T02:33:30.647Z,4.35
2022-10-31T02:36:12.737Z,4.07
2022-10-31T02:38:48.404Z,5.00
2022-10-31T02:41:26.354Z,4.57
2022-10-31T02:44:02.035Z,5.93
2022-10-31T02:46:49.282Z,5.68
2022-10-31T02:49:24.723Z,5.10
2022-10-31T02:51:51.599Z,4.78
2022-10-31T02:54:24.646Z,4.88
2022-10-31T02:56:55.802Z,5.40
2022-10-31T02:59:23.806Z,4.75
2022-10-31T03:01:53.563Z,5.65
2022-10-31T03:04:43.157Z,5.15
2022-10-31T03:07:29.830Z,5.05
2022-10-31T03:10:18.139Z,4.72
2022-10-31T03:13:00.704Z,5.32
2022-10-31T03:15:32.899Z,5.00
2022-10-31T03:18:19.025Z,4.68
2022-10-31T03:21:00.467Z,4.65
2022-10-31T03:23:28.351Z,5.05
2022-10-31T03:25:55.843Z,5.00
2022-10-31T03:28:28.010Z,5.10
2022-10-31T03:30:55.676Z,5.28
2022-10-31T03:33:29.785Z,6.00
2022-10-31T03:36:01.320Z,5.03
2022-10-31T03:38:29.162Z,5.15
2022-10-31T03:40:58.875Z,5.25
2022-10-31T03:43:31.021Z,5.75
2022-10-31T03:45:57.853Z,4.13
2022-10-31T03:48:25.291Z,5.13
2022-10-31T03:51:13.956Z,4.97
2022-10-31T03:54:09.718Z,5.25
2022-10-31T03:56:41.355Z,4.65
2022-10-31T03:59:18.812Z,4.70
2022-10-31T04:01:51.717Z,5.15
2022-10-31T04:04:20.219Z,3.10
2022-10-31T04:06:48.182Z,3.90
2022-10-31T04:09:16.040Z,4.68
2022-10-31T04:11:48.804Z,4.97
2022-10-31T04:14:15.416Z,5.35
2022-10-31T04:16:44.401Z,5.78
2022-10-31T04:19:12.657Z,5.65
2022-10-31T04:21:39.415Z,5.80
2022-10-31T04:24:06.408Z,5.43
2022-10-31T04:26:32.978Z,5.10
2022-10-31T04:28:59.576Z,4.97
2022-10-31T04:31:26.163Z,4.93
2022-10-31T04:33:52.736Z,4.43
2022-10-31T04:36:19.524Z,5.90
2022-10-31T04:38:46.188Z,6.13
2022-10-31T04:41:12.884Z,5.43
2022-10-31T04:43:39.452Z,5.88
2022-10-31T04:46:06.187Z,5.38
2022-10-31T04:48:32.774Z,5.20
2022-10-31T04:51:03.419Z,5.30
2022-10-31T04:53:30.301Z,4.97
2022-10-31T04:56:00.002Z,5.55
2022-10-31T04:58:26.587Z,5.35
2022-10-31T05:00:57.149Z,5.25
2022-10-31T05:03:24.473Z,4.68
2022-10-31T05:05:51.306Z,4.93
2022-10-31T05:08:18.015Z,4.68
2022-10-31T05:10:44.620Z,6.07
2022-10-31T05:13:11.475Z,4.93
2022-10-31T05:15:38.321Z,5.85
2022-10-31T05:18:05.060Z,5.38
2022-10-31T05:20:32.067Z,4.60
2022-10-31T05:22:59.736Z,5.18
2022-10-31T05:25:29.085Z,5.32
2022-10-31T05:27:57.818Z,4.45
2022-10-31T05:30:28.073Z,4.80
2022-10-31T05:32:55.336Z,5.47
2022-10-31T05:35:25.896Z,4.40
2022-10-31T05:37:52.736Z,5.03
2022-10-31T05:40:21.237Z,5.20
2022-10-31T05:42:48.683Z,5.22
2022-10-31T05:45:17.149Z,5.10
2022-10-31T05:47:50.728Z,5.53
2022-10-31T05:50:17.512Z,4.88
2022-10-31T05:52:44.154Z,5.07
2022-10-31T05:55:10.857Z,5.32
2022-10-31T05:57:37.496Z,5.15
2022-10-31T06:00:06.028Z,5.85
2022-10-31T06:02:35.279Z,5.63
2022-10-31T06:05:03.112Z,5.55
2022-10-31T06:07:35.059Z,5.53
2022-10-31T06:10:04.090Z,5.68
2022-10-31T06:12:30.901Z,5.45
2022-10-31T06:14:57.693Z,5.40
2022-10-31T06:17:24.283Z,5.35
2022-10-31T06:22:22.519Z,5.10
2022-10-31T06:24:49.124Z,5.57
2022-10-31T06:27:15.741Z,5.45
2022-10-31T06:29:42.336Z,5.65
2022-10-31T06:32:11.984Z,5.18
2022-10-31T06:34:39.419Z,4.97
2022-10-31T06:37:10.167Z,4.95
2022-10-31T06:39:37.082Z,5.05
2022-10-31T06:42:04.750Z,4.72
2022-10-31T06:44:31.835Z,5.78
2022-10-31T06:46:58.534Z,5.22
2022-10-31T06:49:25.099Z,5.22
2022-10-31T06:51:51.842Z,5.07
2022-10-31T06:54:18.617Z,5.43
2022-10-31T06:56:48.207Z,4.88
2022-10-31T06:59:15.749Z,5.65
2022-10-31T07:01:42.625Z,5.25
2022-10-31T07:04:11.403Z,5.03
2022-10-31T07:06:38.196Z,5.28
2022-10-31T07:09:04.994Z,5.65
2022-10-31T07:11:31.577Z,5.40
2022-10-31T07:13:58.154Z,6.43
2022-10-31T07:16:24.996Z,5.70
2022-10-31T07:18:51.632Z,5.18
2022-10-31T07:21:18.321Z,6.53
2022-10-31T07:23:45.351Z,6.18
2022-10-31T07:26:12.411Z,5.80
2022-10-31T07:28:39.418Z,6.57
2022-10-31T07:31:06.514Z,6.82
2022-10-31T07:33:33.548Z,6.70
2022-10-31T07:36:01.281Z,6.00
2022-10-31T07:38:29.266Z,6.90
2022-10-31T07:40:56.362Z,6.45
2022-10-31T07:43:23.687Z,5.97
2022-10-31T07:45:51.960Z,5.15
2022-10-31T07:48:19.091Z,5.82
2022-10-31T07:50:47.061Z,5.93
2022-10-31T07:53:14.699Z,6.47
2022-10-31T07:55:42.156Z,6.15
2022-10-31T07:58:17.712Z,6.38
2022-10-31T08:00:45.936Z,5.72
2022-10-31T08:03:14.191Z,6.47
2022-10-31T08:05:42.025Z,5.88
2022-10-31T08:08:09.414Z,6.70
2022-10-31T08:10:36.927Z,6.30
2022-10-31T08:13:05.362Z,6.63
2022-10-31T08:15:32.872Z,7.22
2022-10-31T08:18:00.269Z,5.75
2022-10-31T08:20:27.555Z,6.38
2022-10-31T08:23:05.227Z,6.85
2022-10-31T08:25:37.157Z,6.45
2022-10-31T08:28:06.536Z,6.82
2022-10-31T08:30:34.396Z,6.53
2022-10-31T08:33:02.641Z,7.50
2022-10-31T08:35:30.041Z,6.30
2022-10-31T08:37:57.720Z,8.00
2022-10-31T08:40:25.824Z,8.10
2022-10-31T08:42:59.970Z,8.18
2022-10-31T08:45:27.050Z,7.25
2022-10-31T08:47:58.193Z,8.20
2022-10-31T08:50:25.375Z,8.38
2022-10-31T08:53:04.728Z,8.32
2022-10-31T08:55:32.831Z,7.72
2022-10-31T08:58:00.486Z,8.38
2022-10-31T09:00:27.843Z,8.15
2022-10-31T09:03:01.626Z,7.47
2022-10-31T09:05:29.133Z,8.27
2022-10-31T09:08:00.499Z,7.95
2022-10-31T09:10:28.930Z,8.30
2022-10-31T09:12:57.171Z,8.45
2022-10-31T09:15:24.225Z,8.07
2022-10-31T09:17:51.283Z,7.63
2022-10-31T09:20:18.317Z,7.35
2022-10-31T09:22:45.401Z,8.45
2022-10-31T09:25:12.664Z,8.52
2022-10-31T09:27:39.672Z,7.65
2022-10-31T09:30:07.012Z,7.03
2022-10-31T09:32:34.120Z,6.80
2022-10-31T09:35:01.441Z,7.22
2022-10-31T09:37:28.473Z,7.45
2022-10-31T09:39:55.518Z,7.65
2022-10-31T09:42:36.336Z,7.57
2022-10-31T09:45:18.480Z,6.13
2022-10-31T09:47:48.272Z,6.18
2022-10-31T09:50:27.395Z,6.30
2022-10-31T09:53:00.565Z,6.50
2022-10-31T09:55:36.967Z,5.15
2022-10-31T09:58:04.156Z,8.20
2022-10-31T10:00:33.020Z,5.57
2022-10-31T10:03:12.594Z,6.00
2022-10-31T10:05:45.519Z,6.47
2022-10-31T10:08:15.687Z,4.22
2022-10-31T10:11:01.155Z,5.03
2022-10-31T10:13:31.260Z,5.13
2022-10-31T10:16:04.243Z,4.30
2022-10-31T10:18:34.020Z,4.28
2022-10-31T10:21:03.795Z,4.35
2022-10-31T10:23:33.632Z,4.10
2022-10-31T10:26:08.740Z,3.85
2022-10-31T10:28:40.846Z,2.95
2022-10-31T10:31:18.183Z,3.90
2022-10-31T10:33:54.333Z,3.42
2022-10-31T10:36:43.054Z,4.25
2022-10-31T10:39:19.714Z,3.35
2022-10-31T10:42:08.750Z,3.63
2022-10-31T10:44:57.873Z,3.42
2022-10-31T10:47:41.360Z,3.25
2022-10-31T10:50:19.684Z,3.42
2022-10-31T10:52:51.110Z,3.05
2022-10-31T10:55:25.803Z,3.95
2022-10-31T10:57:56.050Z,3.08
2022-10-31T11:00:26.112Z,3.60
2022-10-31T11:02:53.677Z,3.45
2022-10-31T11:05:35.337Z,3.42
2022-10-31T11:08:02.437Z,3.38
2022-10-31T11:10:29.699Z,3.70
2022-10-31T11:13:03.070Z,3.00
2022-10-31T11:15:32.390Z,3.40
2022-10-31T11:17:59.472Z,3.20
2022-10-31T11:20:31.807Z,3.90
2022-10-31T11:23:03.414Z,31.27
2022-10-31T11:25:30.451Z,11.52
2022-10-31T11:28:00.952Z,4.55
2022-10-31T11:30:28.092Z,4.63
2022-10-31T11:32:55.169Z,3.13
2022-10-31T11:35:23.906Z,4.18
2022-10-31T11:37:52.272Z,4.32
2022-10-31T11:40:26.563Z,2.70
2022-10-31T11:42:56.201Z,3.95
2022-10-31T11:45:49.733Z,2.92
2022-10-31T11:48:18.138Z,3.17
2022-10-31T11:50:49.497Z,4.65
2022-10-31T11:53:17.969Z,7.05
2022-10-31T11:55:46.042Z,4.47
2022-10-31T11:58:26.415Z,5.80
2022-10-31T12:00:55.086Z,3.05
2022-10-31T12:03:22.054Z,2.95
2022-10-31T12:05:51.219Z,2.95
2022-10-31T12:08:18.283Z,3.15
2022-10-31T12:11:11.415Z,3.20
2022-10-31T12:13:40.663Z,2.92
2022-10-31T12:16:26.132Z,2.63
2022-10-31T12:18:53.145Z,3.30
2022-10-31T12:21:31.097Z,2.70
2022-10-31T12:24:24.100Z,3.53
2022-10-31T12:26:56.852Z,3.25
2022-10-31T12:29:38.927Z,3.60
2022-10-31T12:32:26.284Z,3.20
2022-10-31T12:35:11.771Z,3.13
2022-10-31T12:37:49.314Z,3.35
2022-10-31T12:40:34.431Z,3.10
2022-10-31T12:43:21.790Z,3.47
2022-10-31T12:45:55.522Z,2.92
2022-10-31T12:48:40.671Z,2.95
2022-10-31T12:51:19.629Z,3.63
2022-10-31T12:53:58.706Z,3.20
2022-10-31T12:56:31.706Z,2.63
2022-10-31T12:59:03.086Z,3.00
2022-10-31T13:01:34.143Z,2.95
2022-10-31T13:04:12.649Z,3.40
2022-10-31T13:06:47.365Z,3.30
2022-10-31T13:09:17.159Z,3.28
2022-10-31T13:11:46.915Z,2.70
2022-10-31T13:14:16.947Z,3.78
2022-10-31T13:16:48.349Z,3.40
2022-10-31T13:19:18.842Z,3.35
2022-10-31T13:21:51.887Z,4.25
2022-10-31T13:24:21.634Z,3.57
2022-10-31T13:26:50.672Z,3.78
2022-10-31T13:29:27.004Z,3.53
2022-10-31T13:31:57.025Z,3.13
2022-10-31T13:34:24.420Z,3.58
2022-10-31T13:36:51.632Z,3.85
2022-10-31T13:39:45.111Z,3.42
2022-10-31T13:42:19.514Z,3.53
2022-10-31T13:44:46.536Z,3.53
2022-10-31T13:47:27.807Z,3.33
2022-10-31T13:50:08.427Z,3.53
2022-10-31T13:52:35.598Z,3.50
2022-10-31T13:55:02.611Z,3.45
2022-10-31T13:57:44.161Z,4.07
2022-10-31T14:00:20.626Z,3.92
2022-10-31T14:02:52.299Z,3.33
2022-10-31T14:05:33.902Z,3.10
2022-10-31T14:08:03.295Z,3.58
2022-10-31T14:10:37.879Z,3.63
2022-10-31T14:13:10.050Z,3.28
2022-10-31T14:15:39.729Z,4.60
2022-10-31T14:18:08.335Z,3.08
2022-10-31T14:20:40.058Z,5.00
2022-10-31T14:23:14.114Z,3.13
2022-10-31T14:25:42.216Z,3.63
2022-10-31T14:28:33.710Z,3.78
2022-10-31T14:31:01.597Z,4.18
2022-10-31T14:33:30.082Z,3.42
2022-10-31T14:36:11.978Z,3.72
2022-10-31T14:39:03.358Z,4.38
2022-10-31T14:41:46.398Z,3.67
2022-10-31T14:44:13.388Z,3.90
2022-10-31T14:46:43.195Z,3.45
2022-10-31T14:49:13.062Z,4.05
2022-10-31T14:51:50.534Z,3.90
2022-10-31T14:54:20.996Z,4.18
2022-10-31T14:56:51.774Z,3.88
2022-10-31T14:59:21.823Z,3.90
2022-10-31T15:02:11.076Z,4.15
2022-10-31T15:04:38.792Z,3.97
2022-10-31T15:07:13.229Z,4.65
2022-10-31T15:09:44.425Z,3.53
2022-10-31T15:12:25.340Z,4.50
2022-10-31T15:14:52.964Z,5.53
2022-10-31T15:17:19.966Z,4.43
2022-10-31T15:19:47.210Z,4.28
2022-10-31T15:22:21.603Z,5.22
2022-10-31T15:24:50.035Z,5.63
2022-10-31T15:27:17.999Z,4.90
2022-10-31T15:29:55.499Z,4.95
2022-10-31T15:32:24.175Z,4.80
2022-10-31T15:34:52.546Z,5.18
2022-10-31T15:37:23.310Z,4.97
2022-10-31T15:39:50.767Z,5.10
2022-10-31T15:42:29.991Z,5.38
2022-10-31T15:45:06.010Z,5.03
2022-10-31T15:47:33.973Z,5.45
2022-10-31T15:50:13.862Z,5.47
2022-10-31T15:52:45.387Z,7.25
2022-10-31T15:55:22.638Z,7.60
2022-10-31T15:58:00.862Z,6.70
2022-10-31T16:00:32.122Z,6.78
2022-10-31T16:03:05.952Z,6.80
2022-10-31T16:05:37.850Z,6.57
2022-10-31T16:08:05.012Z,7.05
2022-10-31T16:10:35.469Z,8.30
2022-10-31T16:13:03.998Z,7.70
2022-10-31T16:15:31.583Z,8.02
2022-10-31T16:18:01.588Z,7.75
2022-10-31T16:20:32.841Z,8.60
2022-10-31T16:23:01.395Z,9.15
2022-10-31T16:25:39.864Z,9.88
2022-10-31T16:28:20.498Z,8.55
2022-10-31T16:30:49.886Z,9.02
2022-10-31T16:33:25.995Z,7.63
2022-10-31T16:35:56.137Z,8.63
2022-10-31T16:38:31.613Z,8.50
2022-10-31T16:40:58.657Z,7.25
2022-10-31T16:43:25.657Z,68.95
2022-10-31T16:45:53.771Z,9.75
2022-10-31T16:48:22.385Z,10.68
2022-10-31T16:50:50.141Z,9.57
2022-10-31T16:53:18.352Z,8.45
2022-10-31T16:55:49.951Z,10.23
2022-10-31T16:58:19.106Z,8.00
2022-10-31T17:00:46.626Z,7.13
2022-10-31T17:03:13.787Z,6.00
2022-10-31T17:05:40.843Z,8.70
2022-10-31T17:08:07.949Z,10.50
2022-10-31T17:10:35.085Z,11.80
2022-10-31T17:13:03.822Z,15.07
2022-10-31T17:15:33.547Z,10.27
2022-10-31T17:18:00.842Z,13.07
2022-10-31T17:20:29.588Z,10.05
2022-10-31T17:22:57.167Z,8.95
2022-10-31T17:25:25.312Z,8.43
2022-10-31T17:27:52.479Z,9.73
2022-10-31T17:30:20.362Z,9.93
2022-10-31T17:32:47.852Z,8.27
2022-10-31T17:35:15.790Z,8.00
2022-10-31T17:37:43.396Z,9.23
2022-10-31T17:40:14.578Z,14.02
2022-10-31T17:42:41.608Z,9.18
2022-10-31T17:45:08.916Z,9.80
2022-10-31T17:47:36.424Z,9.93
2022-10-31T17:50:04.151Z,9.27
2022-10-31T17:52:31.553Z,11.05
2022-10-31T17:54:58.559Z,11.35
2022-10-31T17:57:25.558Z,11.48
2022-10-31T17:59:52.621Z,14.82
2022-10-31T18:02:19.713Z,14.10
2022-10-31T18:04:46.840Z,10.88
2022-10-31T18:07:19.037Z,12.07
2022-10-31T18:09:48.815Z,12.27
2022-10-31T18:12:16.383Z,14.45
2022-10-31T18:14:48.282Z,13.35
2022-10-31T18:17:15.695Z,11.75
2022-10-31T18:19:42.724Z,18.75
2022-10-31T18:22:09.768Z,20.92
2022-10-31T18:24:36.799Z,10.05
2022-10-31T18:27:04.076Z,9.40
2022-10-31T18:29:31.106Z,10.27
2022-10-31T18:31:58.384Z,11.75
2022-10-31T18:34:25.446Z,10.20
2022-10-31T18:36:52.719Z,9.55
2022-10-31T18:39:19.766Z,14.52
2022-10-31T18:41:46.777Z,11.38
2022-10-31T18:44:13.407Z,10.88
2022-10-31T18:46:40.080Z,11.75
2022-10-31T18:49:06.930Z,11.02
2022-10-31T18:51:33.694Z,11.85
2022-10-31T18:54:01.554Z,10.82
2022-10-31T18:56:31.521Z,10.27
2022-10-31T18:59:02.352Z,9.13
2022-10-31T19:01:30.131Z,12.30
2022-10-31T19:03:58.352Z,10.85
2022-10-31T19:06:26.116Z,12.52
2022-10-31T19:09:01.267Z,10.15
2022-10-31T19:11:28.814Z,11.25
2022-10-31T19:13:57.162Z,11.70
2022-10-31T19:16:23.761Z,11.85
2022-10-31T19:18:57.592Z,13.80
2022-10-31T19:21:24.408Z,15.60
2022-10-31T19:23:53.510Z,13.75
2022-10-31T19:26:20.237Z,16.95
2022-10-31T19:28:47.013Z,19.95
2022-10-31T19:31:13.820Z,19.48
2022-10-31T19:33:40.427Z,19.13
2022-10-31T19:36:12.469Z,17.25
2022-10-31T19:38:41.609Z,17.13
2022-10-31T19:41:11.321Z,16.92
2022-10-31T19:43:38.060Z,15.90
2022-10-31T19:46:05.623Z,16.65
2022-10-31T19:48:32.354Z,15.07
2022-10-31T19:51:05.354Z,14.13
2022-10-31T19:53:32.626Z,16.13
2022-10-31T19:55:59.670Z,14.25
2022-10-31T19:58:26.567Z,14.07
2022-10-31T20:00:53.692Z,13.35
2022-10-31T20:03:22.535Z,14.05
2022-10-31T20:05:50.662Z,13.15
2022-10-31T20:08:21.328Z,13.50
2022-10-31T20:10:58.437Z,14.15
2022-10-31T20:13:25.595Z,13.27
2022-10-31T20:15:52.781Z,13.02
2022-10-31T20:18:19.551Z,15.48
2022-10-31T20:20:46.446Z,16.17
2022-10-31T20:23:13.169Z,14.18
2022-10-31T20:25:47.850Z,15.50
2022-10-31T20:28:14.561Z,14.43
2022-10-31T20:30:41.529Z,14.73
2022-10-31T20:33:08.405Z,14.98
2022-10-31T20:35:40.035Z,13.48
2022-10-31T20:38:07.648Z,13.27
2022-10-31T20:40:35.235Z,14.75
2022-10-31T20:43:03.201Z,14.10
2022-10-31T20:45:30.766Z,19.88
2022-10-31T20:47:57.813Z,20.73
2022-10-31T20:50:25.608Z,14.13
2022-10-31T20:52:52.761Z,14.60
2022-10-31T20:55:19.398Z,14.48
2022-10-31T20:57:46.308Z,11.75
2022-10-31T21:00:13.648Z,11.88
2022-10-31T21:02:43.770Z,12.70
2022-10-31T21:05:12.159Z,12.10
2022-10-31T21:07:39.512Z,11.63
2022-10-31T21:10:15.116Z,14.07
2022-10-31T21:12:43.958Z,13.73
2022-10-31T21:15:13.545Z,13.95
2022-10-31T21:17:41.402Z,13.85
2022-10-31T21:20:10.009Z,13.45
2022-10-31T21:22:36.808Z,13.88
2022-10-31T21:25:03.916Z,12.63
2022-10-31T21:27:31.151Z,14.85
2022-10-31T21:29:58.041Z,13.82
2022-10-31T21:32:24.727Z,12.77
2022-10-31T21:34:51.427Z,13.02
2022-10-31T21:37:18.129Z,13.73
2022-10-31T21:39:50.462Z,13.65
2022-10-31T21:42:21.311Z,13.65
2022-10-31T21:44:49.081Z,14.48
2022-10-31T21:47:15.807Z,12.98
2022-10-31T21:49:43.312Z,13.10
2022-10-31T21:52:10.205Z,14.07
2022-10-31T21:54:37.315Z,13.90
2022-10-31T21:57:04.045Z,14.55
2022-10-31T21:59:31.266Z,12.57
2022-10-31T22:02:00.328Z,13.75
2022-10-31T22:04:27.952Z,12.57
2022-10-31T22:06:54.661Z,12.30
2022-10-31T22:09:23.176Z,13.25
2022-10-31T22:11:49.836Z,15.55
2022-10-31T22:14:16.504Z,15.85
2022-10-31T22:16:43.735Z,15.15
2022-10-31T22:19:12.841Z,13.02
2022-10-31T22:21:46.311Z,11.52
2022-10-31T22:24:13.905Z,15.18
2022-10-31T22:26:40.966Z,13.88
2022-10-31T22:29:15.738Z,13.27
2022-10-31T22:31:45.025Z,14.43
2022-10-31T22:34:13.147Z,12.82
2022-10-31T22:36:40.144Z,11.60
2022-10-31T22:39:07.430Z,11.77
2022-10-31T22:41:36.000Z,11.07
2022-10-31T22:44:03.614Z,11.77
2022-10-31T22:46:32.553Z,12.15
2022-10-31T22:49:01.337Z,12.35
2022-10-31T22:51:30.334Z,12.75
2022-10-31T22:53:56.972Z,12.68
2022-10-31T22:56:26.232Z,11.43
2022-10-31T22:58:53.386Z,9.35
2022-10-31T23:01:23.081Z,11.20
2022-10-31T23:03:50.387Z,11.38
2022-10-31T23:06:20.405Z,11.05
2022-10-31T23:08:47.801Z,12.05
2022-10-31T23:11:20.089Z,11.25
2022-10-31T23:14:07.496Z,9.20
2022-10-31T23:16:35.309Z,10.00
2022-10-31T23:19:08.023Z,11.43
2022-10-31T23:21:55.742Z,10.30
2022-10-31T23:24:23.423Z,10.63
2022-10-31T23:27:09.949Z,11.52
2022-10-31T23:29:36.692Z,8.73
2022-10-31T23:32:04.719Z,9.85
2022-10-31T23:34:31.341Z,10.25
2022-10-31T23:36:58.045Z,10.55
2022-10-31T23:39:25.254Z,9.52
2022-10-31T23:41:52.127Z,9.57
2022-10-31T23:44:18.790Z,9.05
2022-10-31T23:46:45.553Z,10.55
2022-10-31T23:49:12.208Z,9.65
2022-10-31T23:51:39.229Z,9.68
2022-10-31T23:54:05.941Z,9.05
2022-10-31T23:56:32.611Z,8.95
2022-10-31T23:58:59.432Z,8.00
